ADDS METAR Data INFO
IDs: Format: Raw Decoded Include TAF

Data at: 1540 UTC 19 Jul 2018

KMIA 191453Z 16007KT 10SM SCT035TCU SCT250 31/23 A3004 RMK AO2 SLP173 TCU NE-E T03060228 51009 $